BAW505 LPPT-EGLL
Flight info
| Callsign | BAW505 |
|---|---|
| Flight time | N/A |
| Altitude | 36000 |
| Route | IXIDA1N IXIDA DCT RIVRO DCT TOSDI DCT ZMR DCT NUBLO DCT RONSI DCT DELOG DCT DEGEX DCT OZNOH DCT JSY DCT REVTU/N0426F340 UP87 ROXOG ROXOG1H |
| Aircraft | A21N/M-SDE2E3FGHIRWXY/LB1 |
Departure
| Time | 2026-05-06 15:44 |
|---|---|
| Airport | Lisbon Humberto Delgado Airport (LPPT) |
Arrival
| Time | N/A |
|---|---|
| Airport | London Heathrow Airport (EGLL) |
| Time | Latitude | Longitude | Altitude | Speed | Heading |
|---|---|---|---|---|---|
| 2026-05-06 15:32 | 38.77550 | -9.13174 | 343 ft | 0 kts | 77° |
| 2026-05-06 15:34 | 38.77547 | -9.13193 | 352 ft | 4 kts | 78° |
| 2026-05-06 15:35 | 38.77541 | -9.13227 | 351 ft | 4 kts | 80° |
| 2026-05-06 15:35 | 38.77538 | -9.13261 | 352 ft | 4 kts | 86° |
| 2026-05-06 15:35 | 38.77539 | -9.13294 | 352 ft | 4 kts | 112° |
| 2026-05-06 15:35 | 38.77550 | -9.13311 | 348 ft | 1 kts | 168° |
| 2026-05-06 15:36 | 38.77550 | -9.13312 | 348 ft | 1 kts | 168° |
| 2026-05-06 15:36 | 38.77550 | -9.13311 | 348 ft | 0 kts | 168° |
| 2026-05-06 15:39 | 38.77549 | -9.13311 | 348 ft | 1 kts | 168° |
| 2026-05-06 15:39 | 38.77535 | -9.13307 | 351 ft | 3 kts | 169° |
| 2026-05-06 15:39 | 38.77503 | -9.13300 | 353 ft | 6 kts | 171° |
| 2026-05-06 15:39 | 38.77452 | -9.13291 | 343 ft | 9 kts | 172° |
| 2026-05-06 15:40 | 38.77378 | -9.13267 | 343 ft | 13 kts | 178° |
| 2026-05-06 15:40 | 38.77319 | -9.13352 | 354 ft | 16 kts | 258° |
| 2026-05-06 15:40 | 38.77295 | -9.13501 | 352 ft | 18 kts | 258° |
| 2026-05-06 15:40 | 38.77268 | -9.13671 | 356 ft | 20 kts | 258° |
| 2026-05-06 15:41 | 38.77236 | -9.13830 | 359 ft | 13 kts | 232° |
| 2026-05-06 15:41 | 38.77152 | -9.13886 | 362 ft | 15 kts | 203° |
| 2026-05-06 15:41 | 38.77055 | -9.13939 | 364 ft | 16 kts | 203° |
| 2026-05-06 15:41 | 38.76951 | -9.13996 | 357 ft | 17 kts | 202° |
| 2026-05-06 15:42 | 38.76840 | -9.14053 | 355 ft | 18 kts | 201° |
| 2026-05-06 15:42 | 38.76724 | -9.14119 | 356 ft | 19 kts | 201° |
| 2026-05-06 15:42 | 38.76615 | -9.14174 | 350 ft | 9 kts | 204° |
| 2026-05-06 15:42 | 38.76592 | -9.14222 | 348 ft | 7 kts | 271° |
| 2026-05-06 15:43 | 38.76607 | -9.14285 | 348 ft | 8 kts | 290° |
| 2026-05-06 15:43 | 38.76636 | -9.14354 | 349 ft | 10 kts | 318° |
| 2026-05-06 15:43 | 38.76709 | -9.14355 | 349 ft | 13 kts | 23° |
| 2026-05-06 15:43 | 38.76801 | -9.14304 | 348 ft | 21 kts | 24° |
| 2026-05-06 15:44 | 38.77175 | -9.14104 | 362 ft | 93 kts | 22° |
| 2026-05-06 15:44 | 38.77950 | -9.13690 | 370 ft | 149 kts | 21° |
| 2026-05-06 15:44 | 38.78992 | -9.13084 | 645 ft | 171 kts | 22° |
| 2026-05-06 15:44 | 38.80086 | -9.12395 | 1219 ft | 179 kts | 23° |
| 2026-05-06 15:45 | 38.81153 | -9.11557 | 1968 ft | 181 kts | 25° |
| 2026-05-06 15:45 | 38.82245 | -9.10726 | 2710 ft | 185 kts | 24° |
| 2026-05-06 15:45 | 38.83406 | -9.09953 | 3519 ft | 191 kts | 24° |
| 2026-05-06 15:45 | 38.84603 | -9.09154 | 4305 ft | 200 kts | 25° |
| 2026-05-06 15:46 | 38.85886 | -9.08305 | 4982 ft | 216 kts | 26° |
| 2026-05-06 15:46 | 38.87288 | -9.07315 | 5378 ft | 244 kts | 36° |
| 2026-05-06 15:46 | 38.88599 | -9.05796 | 5926 ft | 263 kts | 44° |
| 2026-05-06 15:46 | 38.89910 | -9.04103 | 6734 ft | 270 kts | 44° |
| 2026-05-06 15:47 | 38.91247 | -9.02381 | 7604 ft | 275 kts | 44° |
| 2026-05-06 15:47 | 38.92614 | -9.00642 | 8514 ft | 279 kts | 44° |
| 2026-05-06 15:47 | 38.94008 | -8.98875 | 9426 ft | 284 kts | 44° |
| 2026-05-06 15:47 | 38.95433 | -8.97077 | 10255 ft | 293 kts | 44° |
| 2026-05-06 15:48 | 38.96936 | -8.95176 | 10725 ft | 314 kts | 43° |
| 2026-05-06 15:48 | 38.98541 | -8.93148 | 11248 ft | 330 kts | 44° |
| 2026-05-06 15:48 | 39.00197 | -8.91061 | 12020 ft | 337 kts | 43° |
| 2026-05-06 15:48 | 39.01887 | -8.88929 | 12847 ft | 342 kts | 43° |